sensor_id;sensor_type;location;lat;lon;timestamp;pressure;altitude;pressure_sealevel;temperature;humidity
64792;BME280;51226;47.504;19.074;2022-11-11T00:00:40;101761.00;;;9.97;75.80
64792;BME280;51226;47.504;19.074;2022-11-11T00:04:01;101765.13;;;9.93;75.78
64792;BME280;51226;47.504;19.074;2022-11-11T00:07:22;101766.03;;;9.94;75.62
64792;BME280;51226;47.504;19.074;2022-11-11T00:10:52;101765.97;;;9.92;75.73
64792;BME280;51226;47.504;19.074;2022-11-11T00:14:25;101774.56;;;9.91;75.84
64792;BME280;51226;47.504;19.074;2022-11-11T00:17:46;101763.34;;;9.92;75.88
64792;BME280;51226;47.504;19.074;2022-11-11T00:21:28;101773.84;;;9.94;75.86
64792;BME280;51226;47.504;19.074;2022-11-11T00:25:08;101778.06;;;9.92;75.83
64792;BME280;51226;47.504;19.074;2022-11-11T00:28:30;101778.91;;;9.91;76.00
64792;BME280;51226;47.504;19.074;2022-11-11T00:31:52;101777.88;;;9.89;75.73
64792;BME280;51226;47.504;19.074;2022-11-11T00:35:34;101780.38;;;9.87;75.47
64792;BME280;51226;47.504;19.074;2022-11-11T00:39:14;101782.28;;;9.90;75.19
64792;BME280;51226;47.504;19.074;2022-11-11T00:42:37;101785.59;;;9.87;75.37
64792;BME280;51226;47.504;19.074;2022-11-11T00:45:59;101789.13;;;9.88;75.42
64792;BME280;51226;47.504;19.074;2022-11-11T00:49:39;101780.56;;;9.90;75.32
64792;BME280;51226;47.504;19.074;2022-11-11T00:53:26;101786.50;;;9.88;75.50
64792;BME280;51226;47.504;19.074;2022-11-11T00:56:50;101794.34;;;9.88;75.52
64792;BME280;51226;47.504;19.074;2022-11-11T01:00:13;101783.59;;;9.83;75.78
64792;BME280;51226;47.504;19.074;2022-11-11T01:03:36;101790.63;;;9.84;75.65
64792;BME280;51226;47.504;19.074;2022-11-11T01:06:57;101787.94;;;9.82;75.77
64792;BME280;51226;47.504;19.074;2022-11-11T01:10:19;101782.72;;;9.82;75.99
64792;BME280;51226;47.504;19.074;2022-11-11T01:13:59;101781.78;;;9.82;76.03
64792;BME280;51226;47.504;19.074;2022-11-11T01:17:23;101777.31;;;9.79;76.24
64792;BME280;51226;47.504;19.074;2022-11-11T01:20:44;101774.69;;;9.79;76.37
64792;BME280;51226;47.504;19.074;2022-11-11T01:24:06;101781.69;;;9.80;76.33
64792;BME280;51226;47.504;19.074;2022-11-11T01:27:27;101785.03;;;9.78;76.52
64792;BME280;51226;47.504;19.074;2022-11-11T01:30:52;101789.13;;;9.74;76.70
64792;BME280;51226;47.504;19.074;2022-11-11T01:34:14;101788.94;;;9.71;76.73
64792;BME280;51226;47.504;19.074;2022-11-11T01:37:37;101798.38;;;9.69;77.03
64792;BME280;51226;47.504;19.074;2022-11-11T01:40:58;101795.75;;;9.69;77.18
64792;BME280;51226;47.504;19.074;2022-11-11T01:44:45;101792.13;;;9.67;77.37
64792;BME280;51226;47.504;19.074;2022-11-11T01:48:57;101792.97;;;9.66;77.36
64792;BME280;51226;47.504;19.074;2022-11-11T01:52:15;101798.75;;;9.62;77.50
64792;BME280;51226;47.504;19.074;2022-11-11T01:55:38;101789.06;;;9.59;77.62
64792;BME280;51226;47.504;19.074;2022-11-11T01:59:07;101788.84;;;9.56;77.79
64792;BME280;51226;47.504;19.074;2022-11-11T02:06:00;101783.22;;;9.50;77.98
64792;BME280;51226;47.504;19.074;2022-11-11T02:09:24;101788.97;;;9.44;78.22
64792;BME280;51226;47.504;19.074;2022-11-11T02:12:46;101792.44;;;9.45;78.22
64792;BME280;51226;47.504;19.074;2022-11-11T02:16:30;101789.66;;;9.42;78.42
64792;BME280;51226;47.504;19.074;2022-11-11T02:19:55;101797.88;;;9.35;78.54
64792;BME280;51226;47.504;19.074;2022-11-11T02:23:38;101798.59;;;9.32;78.85
64792;BME280;51226;47.504;19.074;2022-11-11T02:27:09;101803.69;;;9.31;78.95
64792;BME280;51226;47.504;19.074;2022-11-11T02:30:34;101808.78;;;9.29;79.15
64792;BME280;51226;47.504;19.074;2022-11-11T02:33:56;101806.09;;;9.27;79.29
64792;BME280;51226;47.504;19.074;2022-11-11T02:37:25;101800.78;;;9.26;79.45
64792;BME280;51226;47.504;19.074;2022-11-11T02:40:47;101811.09;;;9.24;79.61
64792;BME280;51226;47.504;19.074;2022-11-11T02:44:27;101814.38;;;9.22;79.66
64792;BME280;51226;47.504;19.074;2022-11-11T02:47:49;101818.38;;;9.17;79.75
64792;BME280;51226;47.504;19.074;2022-11-11T02:51:10;101822.56;;;9.15;79.87
64792;BME280;51226;47.504;19.074;2022-11-11T02:54:35;101819.66;;;9.10;80.19
64792;BME280;51226;47.504;19.074;2022-11-11T02:57:56;101826.47;;;9.08;80.27
64792;BME280;51226;47.504;19.074;2022-11-11T03:01:23;101825.38;;;9.04;80.50
64792;BME280;51226;47.504;19.074;2022-11-11T03:04:45;101824.38;;;9.02;80.58
64792;BME280;51226;47.504;19.074;2022-11-11T03:08:08;101836.56;;;9.03;80.60
64792;BME280;51226;47.504;19.074;2022-11-11T03:11:31;101839.87;;;9.01;80.68
64792;BME280;51226;47.504;19.074;2022-11-11T03:14:53;101845.19;;;9.02;80.74
64792;BME280;51226;47.504;19.074;2022-11-11T03:18:15;101848.47;;;9.00;80.77
64792;BME280;51226;47.504;19.074;2022-11-11T03:21:38;101851.88;;;8.99;80.84
64792;BME280;51226;47.504;19.074;2022-11-11T03:25:19;101851.97;;;9.00;81.00
64792;BME280;51226;47.504;19.074;2022-11-11T03:28:59;101863.19;;;8.99;81.07
64792;BME280;51226;47.504;19.074;2022-11-11T03:32:20;101861.47;;;9.00;81.07
64792;BME280;51226;47.504;19.074;2022-11-11T03:35:46;101865.06;;;9.02;81.02
64792;BME280;51226;47.504;19.074;2022-11-11T03:39:07;101867.69;;;9.02;80.85
64792;BME280;51226;47.504;19.074;2022-11-11T03:42:28;101864.97;;;9.00;80.79
64792;BME280;51226;47.504;19.074;2022-11-11T03:45:51;101871.00;;;8.99;80.83
64792;BME280;51226;47.504;19.074;2022-11-11T03:49:17;101863.97;;;8.98;80.99
64792;BME280;51226;47.504;19.074;2022-11-11T03:52:41;101869.78;;;8.94;81.19
64792;BME280;51226;47.504;19.074;2022-11-11T03:56:06;101871.47;;;8.94;81.31
64792;BME280;51226;47.504;19.074;2022-11-11T03:59:27;101872.38;;;8.94;81.26
64792;BME280;51226;47.504;19.074;2022-11-11T04:02:51;101872.16;;;8.91;81.35
64792;BME280;51226;47.504;19.074;2022-11-11T04:06:31;101878.25;;;8.92;81.46
64792;BME280;51226;47.504;19.074;2022-11-11T04:10:11;101876.47;;;8.90;81.43
64792;BME280;51226;47.504;19.074;2022-11-11T04:13:47;101883.25;;;8.88;81.49
64792;BME280;51226;47.504;19.074;2022-11-11T04:17:30;101882.25;;;8.86;81.57
64792;BME280;51226;47.504;19.074;2022-11-11T04:20:51;101882.97;;;8.84;81.67
64792;BME280;51226;47.504;19.074;2022-11-11T04:24:34;101893.03;;;8.79;82.10
64792;BME280;51226;47.504;19.074;2022-11-11T04:28:14;101886.12;;;8.80;81.96
64792;BME280;51226;47.504;19.074;2022-11-11T04:31:55;101891.06;;;8.88;82.04
64792;BME280;51226;47.504;19.074;2022-11-11T04:35:36;101883.41;;;8.78;82.14
64792;BME280;51226;47.504;19.074;2022-11-11T04:38:57;101896.41;;;8.78;82.41
64792;BME280;51226;47.504;19.074;2022-11-11T04:42:37;101890.53;;;8.81;82.55
64792;BME280;51226;47.504;19.074;2022-11-11T04:46:01;101896.09;;;8.74;82.73
64792;BME280;51226;47.504;19.074;2022-11-11T04:49:23;101890.72;;;8.70;82.53
64792;BME280;51226;47.504;19.074;2022-11-11T04:52:44;101901.88;;;8.69;82.43
64792;BME280;51226;47.504;19.074;2022-11-11T04:56:13;101906.19;;;8.69;82.52
64792;BME280;51226;47.504;19.074;2022-11-11T04:59:53;101911.28;;;8.67;82.69
64792;BME280;51226;47.504;19.074;2022-11-11T05:03:14;101906.88;;;8.66;82.55
64792;BME280;51226;47.504;19.074;2022-11-11T05:06:36;101918.97;;;8.66;82.48
64792;BME280;51226;47.504;19.074;2022-11-11T05:10:19;101919.53;;;8.62;82.58
64792;BME280;51226;47.504;19.074;2022-11-11T05:13:41;101915.06;;;8.59;83.14
64792;BME280;51226;47.504;19.074;2022-11-11T05:17:21;101914.34;;;8.62;83.59
64792;BME280;51226;47.504;19.074;2022-11-11T05:21:01;101913.44;;;8.61;83.58
64792;BME280;51226;47.504;19.074;2022-11-11T05:24:42;101927.47;;;8.63;83.58
64792;BME280;51226;47.504;19.074;2022-11-11T05:28:24;101915.50;;;8.65;83.34
64792;BME280;51226;47.504;19.074;2022-11-11T05:31:45;101910.75;;;8.60;83.13
64792;BME280;51226;47.504;19.074;2022-11-11T05:35:13;101916.66;;;8.57;83.00
64792;BME280;51226;47.504;19.074;2022-11-11T05:38:34;101920.69;;;8.53;83.12
64792;BME280;51226;47.504;19.074;2022-11-11T05:41:58;101917.22;;;8.53;83.40
64792;BME280;51226;47.504;19.074;2022-11-11T05:45:19;101927.59;;;8.53;83.17
64792;BME280;51226;47.504;19.074;2022-11-11T05:48:40;101928.09;;;8.47;83.18
64792;BME280;51226;47.504;19.074;2022-11-11T05:52:21;101933.41;;;8.49;83.95
64792;BME280;51226;47.504;19.074;2022-11-11T05:55:43;101934.97;;;8.47;83.62
64792;BME280;51226;47.504;19.074;2022-11-11T05:59:05;101946.28;;;8.47;83.33
64792;BME280;51226;47.504;19.074;2022-11-11T06:02:27;101935.88;;;8.47;83.04
64792;BME280;51226;47.504;19.074;2022-11-11T06:05:48;101945.34;;;8.47;82.99
64792;BME280;51226;47.504;19.074;2022-11-11T06:09:09;101933.19;;;8.46;83.07
64792;BME280;51226;47.504;19.074;2022-11-11T06:12:32;101945.16;;;8.44;83.31
64792;BME280;51226;47.504;19.074;2022-11-11T06:16:22;101950.78;;;8.50;83.66
64792;BME280;51226;47.504;19.074;2022-11-11T06:19:43;101953.25;;;8.60;83.94
64792;BME280;51226;47.504;19.074;2022-11-11T06:23:04;101954.69;;;8.68;83.12
64792;BME280;51226;47.504;19.074;2022-11-11T06:26:28;101955.13;;;8.75;82.57
64792;BME280;51226;47.504;19.074;2022-11-11T06:29:52;101970.25;;;8.80;82.28
64792;BME280;51226;47.504;19.074;2022-11-11T06:33:36;101975.56;;;8.82;82.07
64792;BME280;51226;47.504;19.074;2022-11-11T06:36:58;101980.34;;;8.87;82.07
64792;BME280;51226;47.504;19.074;2022-11-11T06:40:19;101977.03;;;8.90;81.95
64792;BME280;51226;47.504;19.074;2022-11-11T06:43:42;101981.50;;;9.04;81.62
64792;BME280;51226;47.504;19.074;2022-11-11T06:47:03;101982.41;;;9.05;82.76
64792;BME280;51226;47.504;19.074;2022-11-11T06:50:24;101968.94;;;9.11;82.44
64792;BME280;51226;47.504;19.074;2022-11-11T06:53:46;101971.38;;;9.21;82.03
64792;BME280;51226;47.504;19.074;2022-11-11T06:57:07;101981.63;;;9.31;81.63
64792;BME280;51226;47.504;19.074;2022-11-11T07:00:28;101979.06;;;9.44;81.10
64792;BME280;51226;47.504;19.074;2022-11-11T07:03:50;101992.13;;;9.58;80.18
64792;BME280;51226;47.504;19.074;2022-11-11T07:07:11;102002.78;;;9.74;78.97
64792;BME280;51226;47.504;19.074;2022-11-11T07:10:34;102013.59;;;9.80;78.73
64792;BME280;51226;47.504;19.074;2022-11-11T07:13:57;102011.62;;;10.03;77.62
64792;BME280;51226;47.504;19.074;2022-11-11T07:17:19;102018.78;;;10.19;77.21
64792;BME280;51226;47.504;19.074;2022-11-11T07:20:40;102015.69;;;10.51;75.66
64792;BME280;51226;47.504;19.074;2022-11-11T07:24:02;102022.09;;;10.70;75.03
64792;BME280;51226;47.504;19.074;2022-11-11T07:27:23;102032.38;;;10.95;74.25
64792;BME280;51226;47.504;19.074;2022-11-11T07:30:44;102033.53;;;11.42;71.90
64792;BME280;51226;47.504;19.074;2022-11-11T07:34:05;102040.31;;;11.96;70.11
64792;BME280;51226;47.504;19.074;2022-11-11T07:37:26;102037.47;;;12.69;68.24
64792;BME280;51226;47.504;19.074;2022-11-11T07:40:48;102038.75;;;13.57;64.70
64792;BME280;51226;47.504;19.074;2022-11-11T07:44:12;102049.19;;;14.42;61.59
64792;BME280;51226;47.504;19.074;2022-11-11T07:47:33;102052.56;;;15.13;59.36
64792;BME280;51226;47.504;19.074;2022-11-11T07:50:55;102054.16;;;15.68;58.06
64792;BME280;51226;47.504;19.074;2022-11-11T07:54:17;102054.88;;;16.46;55.81
64792;BME280;51226;47.504;19.074;2022-11-11T07:57:38;102046.25;;;17.65;50.66
64792;BME280;51226;47.504;19.074;2022-11-11T08:00:59;102040.31;;;19.05;48.43
64792;BME280;51226;47.504;19.074;2022-11-11T08:04:28;102046.16;;;20.23;45.68
64792;BME280;51226;47.504;19.074;2022-11-11T08:07:49;102041.97;;;21.95;40.63
64792;BME280;51226;47.504;19.074;2022-11-11T08:11:11;102046.28;;;23.75;36.57
64792;BME280;51226;47.504;19.074;2022-11-11T08:14:32;102044.06;;;26.12;31.14
64792;BME280;51226;47.504;19.074;2022-11-11T08:17:54;102037.78;;;26.52;29.73
64792;BME280;51226;47.504;19.074;2022-11-11T08:21:15;102036.94;;;28.24;27.34
64792;BME280;51226;47.504;19.074;2022-11-11T08:24:36;102036.00;;;30.32;24.56
64792;BME280;51226;47.504;19.074;2022-11-11T08:28:17;102028.97;;;31.18;23.11
64792;BME280;51226;47.504;19.074;2022-11-11T08:31:38;102043.59;;;29.51;25.03
64792;BME280;51226;47.504;19.074;2022-11-11T08:34:59;102045.97;;;29.72;24.83
64792;BME280;51226;47.504;19.074;2022-11-11T08:38:21;102031.78;;;29.61;24.72
64792;BME280;51226;47.504;19.074;2022-11-11T08:41:43;102036.47;;;27.68;26.57
64792;BME280;51226;47.504;19.074;2022-11-11T08:45:04;102035.88;;;25.33;30.61
64792;BME280;51226;47.504;19.074;2022-11-11T08:48:25;102036.84;;;24.08;32.82
64792;BME280;51226;47.504;19.074;2022-11-11T08:51:47;102035.47;;;23.60;34.14
64792;BME280;51226;47.504;19.074;2022-11-11T08:55:08;102032.75;;;23.57;34.40
64792;BME280;51226;47.504;19.074;2022-11-11T08:58:29;102038.16;;;23.63;34.32
64792;BME280;51226;47.504;19.074;2022-11-11T09:01:50;102042.72;;;23.75;34.41
64792;BME280;51226;47.504;19.074;2022-11-11T09:05:12;102049.28;;;24.06;33.94
64792;BME280;51226;47.504;19.074;2022-11-11T09:08:33;102051.53;;;24.69;32.46
64792;BME280;51226;47.504;19.074;2022-11-11T09:11:56;102038.91;;;24.43;32.68
64792;BME280;51226;47.504;19.074;2022-11-11T09:15:17;102049.09;;;23.86;33.83
64792;BME280;51226;47.504;19.074;2022-11-11T09:18:39;102051.34;;;23.52;34.40
64792;BME280;51226;47.504;19.074;2022-11-11T09:22:00;102051.38;;;23.51;34.55
64792;BME280;51226;47.504;19.074;2022-11-11T09:25:22;102045.62;;;23.18;34.86
64792;BME280;51226;47.504;19.074;2022-11-11T09:28:43;102043.87;;;22.56;35.74
64792;BME280;51226;47.504;19.074;2022-11-11T09:32:11;102041.34;;;22.10;36.70
64792;BME280;51226;47.504;19.074;2022-11-11T09:35:32;102036.31;;;21.78;37.50
64792;BME280;51226;47.504;19.074;2022-11-11T09:38:54;102038.62;;;21.16;38.57
64792;BME280;51226;47.504;19.074;2022-11-11T09:52:46;102043.25;;;19.47;42.87
64792;BME280;51226;47.504;19.074;2022-11-11T09:56:13;102034.88;;;21.06;40.57
64792;BME280;51226;47.504;19.074;2022-11-11T09:59:53;102033.66;;;23.56;35.85
64792;BME280;51226;47.504;19.074;2022-11-11T10:03:21;102026.19;;;28.26;28.12
64792;BME280;51226;47.504;19.074;2022-11-11T10:06:44;102023.91;;;32.86;21.80
64792;BME280;51226;47.504;19.074;2022-11-11T10:13:52;102014.72;;;35.31;18.50
64792;BME280;51226;47.504;19.074;2022-11-11T10:20:41;102011.38;;;36.33;17.53
64792;BME280;51226;47.504;19.074;2022-11-11T10:24:12;101995.94;;;33.47;19.97
64792;BME280;51226;47.504;19.074;2022-11-11T10:27:42;101981.38;;;30.74;23.17
64792;BME280;51226;47.504;19.074;2022-11-11T10:31:08;101988.69;;;28.18;26.44
64792;BME280;51226;47.504;19.074;2022-11-11T10:34:33;101984.28;;;25.50;30.28
64792;BME280;51226;47.504;19.074;2022-11-11T10:38:00;101991.34;;;23.85;32.95
64792;BME280;51226;47.504;19.074;2022-11-11T10:41:37;101977.53;;;22.68;35.18
64792;BME280;51226;47.504;19.074;2022-11-11T10:45:01;101984.56;;;21.55;37.71
64792;BME280;51226;47.504;19.074;2022-11-11T10:52:21;101995.94;;;20.27;40.45
64792;BME280;51226;47.504;19.074;2022-11-11T10:55:50;102006.47;;;20.24;40.83
64792;BME280;51226;47.504;19.074;2022-11-11T10:59:23;101999.37;;;20.61;40.65
64792;BME280;51226;47.504;19.074;2022-11-11T11:03:15;101993.41;;;20.68;40.90
64792;BME280;51226;47.504;19.074;2022-11-11T11:06:43;101992.19;;;20.55;40.98
64792;BME280;51226;47.504;19.074;2022-11-11T11:10:43;101985.13;;;20.56;40.79
64792;BME280;51226;47.504;19.074;2022-11-11T11:14:28;101972.06;;;19.24;43.24
64792;BME280;51226;47.504;19.074;2022-11-11T11:18:08;101964.78;;;18.56;44.99
64792;BME280;51226;47.504;19.074;2022-11-11T11:22:07;101959.88;;;18.40;46.14
64792;BME280;51226;47.504;19.074;2022-11-11T11:25:30;101961.31;;;18.59;46.67
64792;BME280;51226;47.504;19.074;2022-11-11T11:28:59;101965.81;;;18.90;46.18
64792;BME280;51226;47.504;19.074;2022-11-11T11:32:29;101961.94;;;19.41;45.34
64792;BME280;51226;47.504;19.074;2022-11-11T11:35:50;101959.06;;;19.65;44.09
64792;BME280;51226;47.504;19.074;2022-11-11T11:39:12;101955.41;;;19.93;43.62
64792;BME280;51226;47.504;19.074;2022-11-11T11:42:37;101957.62;;;20.11;43.55
64792;BME280;51226;47.504;19.074;2022-11-11T11:46:01;101961.87;;;20.05;43.40
64792;BME280;51226;47.504;19.074;2022-11-11T11:49:45;101967.00;;;19.98;43.70
64792;BME280;51226;47.504;19.074;2022-11-11T11:57:01;101974.16;;;20.03;43.96
64792;BME280;51226;47.504;19.074;2022-11-11T12:00:27;101971.69;;;20.10;43.51
64792;BME280;51226;47.504;19.074;2022-11-11T12:04:09;101962.28;;;20.22;43.62
64792;BME280;51226;47.504;19.074;2022-11-11T12:15:14;101970.19;;;21.92;39.71
64792;BME280;51226;47.504;19.074;2022-11-11T12:19:10;101966.50;;;23.88;35.83
64792;BME280;51226;47.504;19.074;2022-11-11T12:23:26;101950.44;;;26.15;31.09
64792;BME280;51226;47.504;19.074;2022-11-11T12:26:47;101956.53;;;26.77;30.03
64792;BME280;51226;47.504;19.074;2022-11-11T12:30:22;101953.00;;;26.75;30.00
64792;BME280;51226;47.504;19.074;2022-11-11T12:44:24;101964.81;;;27.87;26.50
64792;BME280;51226;47.504;19.074;2022-11-11T12:51:53;101938.06;;;30.84;22.67
64792;BME280;51226;47.504;19.074;2022-11-11T12:55:50;101948.37;;;31.45;21.98
64792;BME280;51226;47.504;19.074;2022-11-11T13:03:17;101955.37;;;29.14;24.24
64792;BME280;51226;47.504;19.074;2022-11-11T13:07:18;101948.56;;;26.56;27.47
64792;BME280;51226;47.504;19.074;2022-11-11T13:10:58;101943.19;;;25.05;30.80
64792;BME280;51226;47.504;19.074;2022-11-11T13:14:44;101929.22;;;23.95;31.33
64792;BME280;51226;47.504;19.074;2022-11-11T13:18:14;101922.63;;;22.70;33.79
64792;BME280;51226;47.504;19.074;2022-11-11T13:21:48;101922.94;;;21.74;35.97
64792;BME280;51226;47.504;19.074;2022-11-11T13:25:15;101929.38;;;20.92;37.84
64792;BME280;51226;47.504;19.074;2022-11-11T13:28:47;101936.53;;;20.17;39.59
64792;BME280;51226;47.504;19.074;2022-11-11T13:32:12;101942.88;;;19.54;40.39
64792;BME280;51226;47.504;19.074;2022-11-11T13:35:50;101943.25;;;19.01;41.47
64792;BME280;51226;47.504;19.074;2022-11-11T13:39:25;101944.69;;;18.61;42.80
64792;BME280;51226;47.504;19.074;2022-11-11T13:42:50;101950.34;;;18.16;44.25
64792;BME280;51226;47.504;19.074;2022-11-11T13:46:38;101924.97;;;17.68;45.08
64792;BME280;51226;47.504;19.074;2022-11-11T13:50:37;101920.78;;;17.23;47.46
64792;BME280;51226;47.504;19.074;2022-11-11T13:54:00;101926.75;;;16.94;47.96
64792;BME280;51226;47.504;19.074;2022-11-11T13:57:24;101931.16;;;16.71;48.85
64792;BME280;51226;47.504;19.074;2022-11-11T14:00:57;101930.19;;;16.46;50.31
64792;BME280;51226;47.504;19.074;2022-11-11T14:04:20;101932.25;;;16.30;51.66
64792;BME280;51226;47.504;19.074;2022-11-11T14:14:55;101927.81;;;15.86;53.60
64792;BME280;51226;47.504;19.074;2022-11-11T14:21:51;101934.75;;;15.64;53.76
64792;BME280;51226;47.504;19.074;2022-11-11T14:25:24;101928.00;;;15.50;54.91
64792;BME280;51226;47.504;19.074;2022-11-11T14:28:52;101925.06;;;15.42;54.49
64792;BME280;51226;47.504;19.074;2022-11-11T14:39:35;101909.91;;;14.96;56.14
64792;BME280;51226;47.504;19.074;2022-11-11T14:42:59;101900.63;;;14.85;56.73
64792;BME280;51226;47.504;19.074;2022-11-11T14:50:40;101907.53;;;14.63;58.27
64792;BME280;51226;47.504;19.074;2022-11-11T14:54:05;101909.78;;;14.55;58.69
64792;BME280;51226;47.504;19.074;2022-11-11T14:57:45;101909.28;;;14.44;59.23
64792;BME280;51226;47.504;19.074;2022-11-11T15:01:15;101913.97;;;14.32;59.23
64792;BME280;51226;47.504;19.074;2022-11-11T15:04:39;101910.16;;;14.25;59.94
64792;BME280;51226;47.504;19.074;2022-11-11T15:12:57;101912.84;;;14.09;61.44
64792;BME280;51226;47.504;19.074;2022-11-11T15:20:30;101914.13;;;13.81;61.86
64792;BME280;51226;47.504;19.074;2022-11-11T15:27:49;101916.59;;;13.60;63.01
64792;BME280;51226;47.504;19.074;2022-11-11T15:35:30;101917.44;;;13.43;64.24
64792;BME280;51226;47.504;19.074;2022-11-11T15:38:55;101915.91;;;13.30;64.62
64792;BME280;51226;47.504;19.074;2022-11-11T15:46:01;101925.44;;;13.11;66.30
64792;BME280;51226;47.504;19.074;2022-11-11T15:49:43;101921.97;;;12.96;66.68
64792;BME280;51226;47.504;19.074;2022-11-11T15:53:12;101931.87;;;12.85;66.98
64792;BME280;51226;47.504;19.074;2022-11-11T15:56:33;101932.44;;;12.79;67.53
64792;BME280;51226;47.504;19.074;2022-11-11T15:59:57;101929.34;;;12.70;68.08
64792;BME280;51226;47.504;19.074;2022-11-11T16:03:19;101934.22;;;12.64;68.29
64792;BME280;51226;47.504;19.074;2022-11-11T16:06:42;101936.38;;;12.55;68.65
64792;BME280;51226;47.504;19.074;2022-11-11T16:10:08;101941.34;;;12.50;69.07
64792;BME280;51226;47.504;19.074;2022-11-11T16:13:36;101952.13;;;12.40;69.78
64792;BME280;51226;47.504;19.074;2022-11-11T16:17:00;101944.81;;;12.34;70.54
64792;BME280;51226;47.504;19.074;2022-11-11T16:20:27;101940.22;;;12.30;70.14
64792;BME280;51226;47.504;19.074;2022-11-11T16:23:50;101941.87;;;12.28;70.11
64792;BME280;51226;47.504;19.074;2022-11-11T16:27:18;101934.66;;;12.24;70.16
64792;BME280;51226;47.504;19.074;2022-11-11T16:30:40;101937.91;;;12.20;70.72
64792;BME280;51226;47.504;19.074;2022-11-11T16:37:53;101942.53;;;12.09;71.08
64792;BME280;51226;47.504;19.074;2022-11-11T16:52:16;101927.88;;;11.96;72.79
64792;BME280;51226;47.504;19.074;2022-11-11T16:55:45;101932.91;;;11.93;72.72
64792;BME280;51226;47.504;19.074;2022-11-11T16:59:11;101936.13;;;11.89;73.20
64792;BME280;51226;47.504;19.074;2022-11-11T17:02:36;101942.19;;;11.88;73.91
64792;BME280;51226;47.504;19.074;2022-11-11T17:06:06;101927.28;;;11.87;74.00
64792;BME280;51226;47.504;19.074;2022-11-11T17:09:37;101934.06;;;11.83;73.79
64792;BME280;51226;47.504;19.074;2022-11-11T17:12:58;101940.84;;;11.80;73.79
64792;BME280;51226;47.504;19.074;2022-11-11T17:16:24;101938.13;;;11.78;73.70
64792;BME280;51226;47.504;19.074;2022-11-11T17:19:45;101931.81;;;11.75;73.82
64792;BME280;51226;47.504;19.074;2022-11-11T17:23:07;101923.72;;;11.70;74.58
64792;BME280;51226;47.504;19.074;2022-11-11T17:26:30;101916.94;;;11.74;73.85
64792;BME280;51226;47.504;19.074;2022-11-11T17:29:52;101925.25;;;11.66;73.84
64792;BME280;51226;47.504;19.074;2022-11-11T17:33:13;101908.91;;;11.71;73.92
64792;BME280;51226;47.504;19.074;2022-11-11T17:36:34;101905.22;;;11.67;73.32
64792;BME280;51226;47.504;19.074;2022-11-11T17:39:55;101911.34;;;11.67;73.89
64792;BME280;51226;47.504;19.074;2022-11-11T17:43:17;101918.66;;;11.73;73.01
64792;BME280;51226;47.504;19.074;2022-11-11T17:46:38;101916.56;;;11.67;73.62
64792;BME280;51226;47.504;19.074;2022-11-11T17:50:00;101907.75;;;11.65;74.25
64792;BME280;51226;47.504;19.074;2022-11-11T17:53:21;101897.13;;;11.62;73.80
64792;BME280;51226;47.504;19.074;2022-11-11T17:56:42;101902.97;;;11.73;72.45
64792;BME280;51226;47.504;19.074;2022-11-11T18:00:05;101893.22;;;11.71;72.70
64792;BME280;51226;47.504;19.074;2022-11-11T18:03:27;101893.69;;;11.63;73.21
64792;BME280;51226;47.504;19.074;2022-11-11T18:06:48;101898.75;;;11.60;73.70
64792;BME280;51226;47.504;19.074;2022-11-11T18:10:10;101898.66;;;11.59;74.09
64792;BME280;51226;47.504;19.074;2022-11-11T18:13:31;101886.41;;;11.58;74.47
64792;BME280;51226;47.504;19.074;2022-11-11T18:16:53;101887.13;;;11.55;74.34
64792;BME280;51226;47.504;19.074;2022-11-11T18:20:14;101883.72;;;11.56;74.82
64792;BME280;51226;47.504;19.074;2022-11-11T18:23:37;101884.50;;;11.55;75.49
64792;BME280;51226;47.504;19.074;2022-11-11T18:26:59;101874.06;;;11.55;75.53
64792;BME280;51226;47.504;19.074;2022-11-11T18:30:20;101872.16;;;11.53;75.28
64792;BME280;51226;47.504;19.074;2022-11-11T18:33:42;101876.50;;;11.52;75.36
64792;BME280;51226;47.504;19.074;2022-11-11T18:37:07;101873.97;;;11.54;75.57
64792;BME280;51226;47.504;19.074;2022-11-11T18:40:30;101868.94;;;11.57;75.60
64792;BME280;51226;47.504;19.074;2022-11-11T18:43:53;101883.06;;;11.60;75.38
64792;BME280;51226;47.504;19.074;2022-11-11T18:47:14;101875.91;;;11.73;74.18
64792;BME280;51226;47.504;19.074;2022-11-11T18:50:35;101871.44;;;11.55;74.94
64792;BME280;51226;47.504;19.074;2022-11-11T18:53:56;101868.28;;;11.61;74.70
64792;BME280;51226;47.504;19.074;2022-11-11T18:57:18;101873.87;;;11.52;75.09
64792;BME280;51226;47.504;19.074;2022-11-11T19:00:39;101872.34;;;11.56;74.42
64792;BME280;51226;47.504;19.074;2022-11-11T19:04:04;101875.13;;;11.44;75.11
64792;BME280;51226;47.504;19.074;2022-11-11T19:07:26;101878.81;;;11.47;75.22
64792;BME280;51226;47.504;19.074;2022-11-11T19:10:48;101875.41;;;11.48;75.33
64792;BME280;51226;47.504;19.074;2022-11-11T19:14:10;101870.56;;;11.55;75.62
64792;BME280;51226;47.504;19.074;2022-11-11T19:17:31;101872.25;;;11.54;75.41
64792;BME280;51226;47.504;19.074;2022-11-11T19:20:56;101870.66;;;11.56;75.28
64792;BME280;51226;47.504;19.074;2022-11-11T19:24:17;101884.50;;;11.55;75.28
64792;BME280;51226;47.504;19.074;2022-11-11T19:27:38;101877.37;;;11.53;75.70
64792;BME280;51226;47.504;19.074;2022-11-11T19:31:03;101872.91;;;11.50;75.53
64792;BME280;51226;47.504;19.074;2022-11-11T19:34:25;101877.13;;;11.48;75.58
64792;BME280;51226;47.504;19.074;2022-11-11T19:37:46;101879.75;;;11.48;75.52
64792;BME280;51226;47.504;19.074;2022-11-11T19:41:21;101883.97;;;11.46;75.50
64792;BME280;51226;47.504;19.074;2022-11-11T19:44:43;101883.53;;;11.38;75.73